Time;durP1;ratioP1;P1;durP2;ratioP2;P2;SDS_P1;SDS_P2;PMS_P1;PMS_P2;Temp;Humidity;BMP_temperature;BMP_pressure;BME280_temperature;BME280_humidity;BME280_pressure;Samples;Min_cycle;Max_cycle;Signal;HPM_P1;HPM_P2
2022/07/19 00:01:26;;;;;;;10.23;7.10;;;25.70;53.40;;;;;;5057888;28;20994;-82
2022/07/19 00:03:54;;;;;;;12.77;7.80;;;25.50;53.70;;;;;;5057677;28;20469;-82
2022/07/19 00:06:22;;;;;;;12.60;8.00;;;25.40;54.40;;;;;;5056862;28;20535;-81
2022/07/19 00:08:50;;;;;;;12.53;8.20;;;25.50;54.10;;;;;;5057254;28;20499;-80
2022/07/19 00:11:18;;;;;;;12.07;7.47;;;25.70;53.40;;;;;;5052245;28;20486;-81
2022/07/19 00:13:46;;;;;;;10.10;7.37;;;25.70;53.30;;;;;;5037114;28;21078;-81
2022/07/19 00:16:15;;;;;;;9.37;7.30;;;25.70;53.60;;;;;;5035856;28;20409;-81
2022/07/19 00:18:43;;;;;;;10.43;7.20;;;25.60;53.70;;;;;;5045085;28;20424;-81
2022/07/19 00:21:11;;;;;;;11.30;7.50;;;25.60;53.50;;;;;;5052720;28;20498;-81
2022/07/19 00:23:39;;;;;;;8.77;7.50;;;25.30;54.30;;;;;;5055461;28;20449;-81
2022/07/19 00:26:07;;;;;;;10.00;7.90;;;24.90;55.30;;;;;;5039974;28;20452;-80
2022/07/19 00:28:35;;;;;;;8.80;7.40;;;24.70;55.50;;;;;;5044367;28;20417;-80
2022/07/19 00:31:04;;;;;;;16.40;7.70;;;24.60;55.90;;;;;;5055307;28;20459;-81
2022/07/19 00:33:34;;;;;;;8.83;7.40;;;24.50;55.90;;;;;;5055566;28;20561;-80
2022/07/19 00:36:02;;;;;;;10.03;7.73;;;24.50;56.40;;;;;;5050569;28;20470;-80
2022/07/19 00:38:30;;;;;;;16.30;8.13;;;24.80;56.20;;;;;;5035187;28;20422;-81
2022/07/19 00:40:57;;;;;;;12.67;8.37;;;24.90;55.40;;;;;;5044545;28;20514;-81
2022/07/19 00:43:25;;;;;;;10.33;7.63;;;25.00;54.90;;;;;;5045340;28;20441;-81
2022/07/19 00:45:53;;;;;;;11.50;8.00;;;24.80;55.40;;;;;;5036130;28;20518;-80
2022/07/19 00:48:21;;;;;;;11.47;7.73;;;24.80;55.60;;;;;;5042299;28;20467;-80
2022/07/19 00:50:50;;;;;;;12.60;7.40;;;24.80;55.10;;;;;;5055253;28;20515;-81
2022/07/19 00:53:18;;;;;;;11.83;7.80;;;24.70;55.80;;;;;;5053829;28;20542;-80
2022/07/19 00:55:46;;;;;;;11.17;7.60;;;24.70;55.90;;;;;;5042843;28;20414;-81
2022/07/19 00:58:14;;;;;;;9.33;7.90;;;24.70;55.70;;;;;;5036061;28;20414;-80
2022/07/19 01:00:42;;;;;;;12.63;8.27;;;24.50;56.40;;;;;;5042618;28;20908;-81
2022/07/19 01:03:09;;;;;;;13.03;7.40;;;24.20;57.20;;;;;;5055877;28;20464;-81
2022/07/19 01:05:37;;;;;;;10.93;8.20;;;24.50;56.40;;;;;;5048926;28;20522;-81
2022/07/19 01:08:06;;;;;;;12.87;8.40;;;24.30;56.50;;;;;;5036305;28;20482;-81
2022/07/19 01:10:34;;;;;;;9.10;7.97;;;24.30;57.00;;;;;;5037049;28;20904;-81
2022/07/19 01:13:02;;;;;;;15.90;8.10;;;24.60;56.00;;;;;;5056086;28;20441;-81
2022/07/19 01:15:29;;;;;;;10.63;7.47;;;24.90;55.10;;;;;;5055189;28;20457;-81
2022/07/19 01:17:57;;;;;;;13.17;8.43;;;25.00;54.70;;;;;;5055954;28;20524;-80
2022/07/19 01:20:25;;;;;;;11.63;8.13;;;25.00;54.70;;;;;;5053162;28;20432;-81
2022/07/19 01:22:59;;;;;;;11.83;8.07;;;25.00;54.70;;;;;;5048804;28;20463;-81
2022/07/19 01:25:27;;;;;;;12.77;8.03;;;25.20;54.40;;;;;;5053291;28;20529;-82
2022/07/19 01:27:55;;;;;;;12.10;7.80;;;25.00;54.80;;;;;;5055219;28;20557;-81
2022/07/19 01:30:24;;;;;;;11.43;7.73;;;24.80;55.60;;;;;;5054201;28;20535;-81
2022/07/19 01:32:53;;;;;;;11.97;7.97;;;24.90;55.20;;;;;;5052961;28;20493;-79
2022/07/19 01:35:21;;;;;;;10.90;8.00;;;25.00;54.80;;;;;;5050048;28;20460;-79
2022/07/19 01:37:49;;;;;;;11.83;8.40;;;25.00;54.30;;;;;;5050100;28;20453;-79
2022/07/19 01:40:19;;;;;;;14.63;8.10;;;24.70;55.20;;;;;;5033409;28;20454;-79
2022/07/19 01:42:47;;;;;;;12.77;8.10;;;24.40;55.70;;;;;;5050439;28;20838;-79
2022/07/19 01:45:15;;;;;;;12.90;8.00;;;24.20;56.40;;;;;;5049561;28;20504;-79
2022/07/19 01:47:43;;;;;;;8.70;7.40;;;24.50;56.20;;;;;;5041627;28;20450;-78
2022/07/19 01:50:14;;;;;;;10.63;7.33;;;24.50;56.10;;;;;;5031067;28;20426;-79
2022/07/19 01:52:42;;;;;;;12.00;7.40;;;24.30;56.20;;;;;;5052949;28;20457;-79
2022/07/19 01:55:18;;;;;;;11.00;7.93;;;24.10;56.90;;;;;;5052421;28;20414;-79
2022/07/19 01:57:45;;;;;;;12.23;8.53;;;24.10;57.10;;;;;;5036200;28;20885;-79
2022/07/19 02:00:14;;;;;;;13.70;8.37;;;24.30;57.00;;;;;;5033350;28;20439;-79
2022/07/19 02:02:42;;;;;;;12.63;8.27;;;24.50;56.20;;;;;;5032540;28;20418;-79
2022/07/19 02:05:10;;;;;;;9.87;7.70;;;24.70;55.80;;;;;;5033117;28;20436;-79
2022/07/19 02:07:38;;;;;;;10.07;7.37;;;24.70;55.50;;;;;;5032108;28;20506;-79
2022/07/19 02:10:08;;;;;;;12.50;8.70;;;24.50;55.80;;;;;;5045337;28;20420;-78
2022/07/19 02:12:37;;;;;;;9.93;7.90;;;24.30;56.60;;;;;;5049339;28;20427;-79
2022/07/19 02:15:07;;;;;;;13.53;8.57;;;24.00;56.80;;;;;;5043933;28;20408;-79
2022/07/19 02:17:35;;;;;;;12.40;8.13;;;24.00;57.70;;;;;;5039527;28;20423;-79
2022/07/19 02:20:03;;;;;;;13.20;8.60;;;24.30;56.90;;;;;;5038230;28;20448;-79
2022/07/19 02:22:31;;;;;;;11.90;8.10;;;24.40;56.00;;;;;;5039751;28;20427;-79
2022/07/19 02:24:59;;;;;;;13.13;8.47;;;24.10;56.40;;;;;;5039038;28;20511;-78
2022/07/19 02:27:28;;;;;;;14.53;8.80;;;23.80;57.80;;;;;;5040662;28;20478;-78
2022/07/19 02:29:57;;;;;;;11.40;8.63;;;24.10;57.40;;;;;;5040832;28;20499;-79
2022/07/19 02:32:25;;;;;;;11.90;8.67;;;24.30;56.60;;;;;;5038709;28;20442;-78
2022/07/19 02:34:53;;;;;;;12.77;8.47;;;24.00;57.10;;;;;;5038297;28;20445;-79
2022/07/19 02:37:21;;;;;;;11.77;8.60;;;23.80;57.70;;;;;;5039092;28;20503;-79
2022/07/19 02:39:49;;;;;;;11.27;8.53;;;23.70;58.10;;;;;;5037942;28;20418;-79
2022/07/19 02:42:17;;;;;;;12.30;7.90;;;23.70;58.00;;;;;;5038532;28;20445;-79
2022/07/19 02:44:45;;;;;;;11.90;8.97;;;23.50;58.30;;;;;;5040722;28;20528;-78
2022/07/19 02:47:14;;;;;;;29.83;20.17;;;23.50;58.30;;;;;;5037177;28;20565;-79
2022/07/19 02:49:43;;;;;;;42.53;25.77;;;23.60;59.40;;;;;;5031521;28;20549;-79
2022/07/19 02:52:10;;;;;;;18.50;13.00;;;24.00;58.50;;;;;;5040789;28;20537;-80
2022/07/19 02:54:39;;;;;;;13.87;9.13;;;23.90;57.00;;;;;;5051896;28;20561;-79
2022/07/19 02:57:07;;;;;;;14.40;8.60;;;23.70;57.80;;;;;;5050297;28;20545;-79
2022/07/19 02:59:35;;;;;;;21.63;14.83;;;23.60;58.00;;;;;;5053062;28;20533;-80
2022/07/19 03:02:03;;;;;;;26.50;17.97;;;23.40;58.70;;;;;;5054772;28;20461;-80
2022/07/19 03:04:32;;;;;;;28.23;18.60;;;23.60;58.80;;;;;;5053669;28;20462;-80
2022/07/19 03:07:00;;;;;;;30.97;15.40;;;23.90;58.00;;;;;;5053203;28;20545;-80
2022/07/19 03:09:28;;;;;;;20.80;11.07;;;24.00;57.30;;;;;;5053261;28;20444;-80
2022/07/19 03:11:56;;;;;;;17.40;11.17;;;23.70;57.40;;;;;;5053534;28;20470;-80
2022/07/19 03:14:24;;;;;;;17.43;12.50;;;23.50;58.70;;;;;;5053463;28;20474;-80
2022/07/19 03:16:52;;;;;;;20.27;11.90;;;23.50;59.00;;;;;;5052396;28;20446;-81
2022/07/19 03:19:20;;;;;;;14.60;8.70;;;23.70;58.30;;;;;;5057234;28;20448;-80
2022/07/19 03:21:49;;;;;;;13.37;9.43;;;23.80;57.60;;;;;;5056886;28;20954;-80
2022/07/19 03:24:17;;;;;;;33.90;19.87;;;23.60;58.40;;;;;;5056539;28;20459;-80
2022/07/19 03:26:45;;;;;;;36.67;16.70;;;23.80;58.60;;;;;;5055568;28;20465;-80
2022/07/19 03:29:13;;;;;;;22.33;14.43;;;23.90;57.50;;;;;;5057214;28;20474;-81
2022/07/19 03:31:41;;;;;;;24.20;15.60;;;24.00;58.00;;;;;;5057783;28;20446;-80
2022/07/19 03:34:09;;;;;;;16.97;11.57;;;24.10;57.30;;;;;;5056576;28;20458;-81
2022/07/19 03:36:37;;;;;;;12.80;9.47;;;24.10;57.00;;;;;;5055996;28;20411;-80
2022/07/19 03:39:06;;;;;;;15.23;10.10;;;24.00;57.30;;;;;;5056375;28;20409;-81
2022/07/19 03:41:34;;;;;;;15.27;9.70;;;23.90;57.90;;;;;;5050620;28;20532;-81
2022/07/19 03:44:02;;;;;;;14.00;9.27;;;23.90;57.80;;;;;;5056919;28;20454;-81
2022/07/19 03:46:30;;;;;;;13.90;10.20;;;24.10;57.20;;;;;;5048664;28;20500;-81
2022/07/19 03:48:58;;;;;;;14.20;10.40;;;24.10;56.90;;;;;;5036557;28;20498;-80
2022/07/19 03:51:25;;;;;;;13.47;9.80;;;23.90;57.60;;;;;;5036945;28;20503;-80
2022/07/19 03:53:53;;;;;;;21.00;9.90;;;23.70;58.00;;;;;;5035725;28;20621;-81
2022/07/19 03:56:22;;;;;;;19.50;9.90;;;23.70;58.20;;;;;;5036143;28;20529;-81
2022/07/19 03:58:50;;;;;;;14.60;9.87;;;23.70;58.00;;;;;;5046312;28;20477;-82
2022/07/19 04:01:18;;;;;;;18.77;10.50;;;23.90;57.80;;;;;;5057135;28;20533;-81
2022/07/19 04:03:50;;;;;;;15.70;10.63;;;23.90;57.70;;;;;;5057477;28;20454;-81
2022/07/19 04:06:18;;;;;;;16.63;10.33;;;23.80;58.20;;;;;;5056609;28;20435;-81
2022/07/19 04:08:45;;;;;;;19.20;11.30;;;23.80;57.90;;;;;;5056491;28;20560;-81
2022/07/19 04:11:13;;;;;;;23.60;11.00;;;23.80;58.20;;;;;;5057216;28;20467;-81
2022/07/19 04:13:42;;;;;;;18.93;9.83;;;23.90;57.60;;;;;;5058214;28;20533;-81
2022/07/19 04:16:10;;;;;;;23.20;10.80;;;23.90;57.50;;;;;;5057271;28;20417;-81
2022/07/19 04:18:38;;;;;;;17.07;10.70;;;24.00;57.30;;;;;;5057187;28;20920;-81
2022/07/19 04:21:06;;;;;;;13.43;9.67;;;24.10;56.90;;;;;;5056299;28;20449;-81
2022/07/19 04:23:34;;;;;;;16.50;10.97;;;24.20;56.50;;;;;;5056369;28;20443;-81
2022/07/19 04:26:01;;;;;;;17.50;10.70;;;23.80;57.10;;;;;;5055537;28;20520;-81
2022/07/19 04:28:29;;;;;;;15.53;10.03;;;23.70;58.20;;;;;;5056584;28;20493;-81
2022/07/19 04:30:58;;;;;;;16.27;11.03;;;23.70;58.50;;;;;;5055872;28;20456;-81
2022/07/19 04:33:26;;;;;;;27.43;11.87;;;23.90;57.40;;;;;;5057365;28;20435;-81
2022/07/19 04:35:54;;;;;;;17.63;12.00;;;23.90;57.90;;;;;;5057171;28;20422;-82
2022/07/19 04:38:22;;;;;;;23.60;12.50;;;24.00;57.40;;;;;;5057268;28;20525;-81
2022/07/19 04:40:50;;;;;;;19.37;11.77;;;23.90;57.50;;;;;;5043898;28;20537;-81
2022/07/19 04:43:26;;;;;;;18.63;10.97;;;23.90;57.60;;;;;;5056735;28;20935;-81
2022/07/19 04:45:54;;;;;;;18.40;11.27;;;24.10;56.90;;;;;;5045177;28;20421;-81
2022/07/19 04:48:23;;;;;;;20.40;11.53;;;24.30;56.80;;;;;;5036844;28;20509;-81
2022/07/19 04:50:51;;;;;;;28.93;11.30;;;24.50;56.20;;;;;;5038330;28;20530;-81
2022/07/19 04:53:19;;;;;;;20.37;10.87;;;24.50;55.80;;;;;;5036438;28;20468;-81
2022/07/19 04:55:47;;;;;;;20.13;11.80;;;24.50;56.20;;;;;;5035454;28;20534;-81
2022/07/19 04:58:15;;;;;;;17.23;11.47;;;24.50;56.30;;;;;;5048708;28;20481;-81
2022/07/19 05:00:43;;;;;;;18.57;11.13;;;24.60;56.20;;;;;;5056087;28;20443;-81
2022/07/19 05:03:11;;;;;;;19.97;11.27;;;24.60;56.10;;;;;;5055220;28;20520;-79
2022/07/19 05:05:41;;;;;;;23.47;12.43;;;24.70;55.60;;;;;;5054902;28;20446;-79
2022/07/19 05:08:09;;;;;;;22.03;12.00;;;24.80;55.30;;;;;;5055191;28;20457;-79
2022/07/19 05:10:36;;;;;;;21.50;11.87;;;24.80;55.20;;;;;;5054318;28;20565;-79
2022/07/19 05:13:04;;;;;;;23.87;11.60;;;24.80;54.70;;;;;;5054153;28;20549;-79
2022/07/19 05:15:32;;;;;;;23.37;12.27;;;24.60;55.30;;;;;;5053911;28;20477;-79
2022/07/19 05:18:00;;;;;;;17.80;10.97;;;24.50;55.50;;;;;;5054672;28;20448;-79
2022/07/19 05:20:28;;;;;;;18.00;11.40;;;24.50;55.80;;;;;;5053923;28;20530;-79
2022/07/19 05:22:58;;;;;;;16.60;10.77;;;24.40;55.30;;;;;;5054164;28;20529;-79
2022/07/19 05:25:26;;;;;;;21.70;11.27;;;24.50;56.40;;;;;;5053194;28;20421;-79
2022/07/19 05:27:55;;;;;;;19.33;9.87;;;24.70;55.20;;;;;;5054171;28;20443;-80
2022/07/19 05:30:23;;;;;;;17.40;10.60;;;24.60;55.00;;;;;;5053846;28;20575;-80
2022/07/19 05:32:51;;;;;;;15.90;10.90;;;24.60;55.30;;;;;;5053964;28;20437;-79
2022/07/19 05:35:19;;;;;;;21.13;10.70;;;24.90;54.50;;;;;;5053164;28;20454;-80
2022/07/19 05:37:46;;;;;;;20.07;10.43;;;25.10;53.70;;;;;;5053361;28;20508;-79
2022/07/19 05:40:15;;;;;;;16.27;10.40;;;25.20;53.40;;;;;;5049845;28;20427;-79
2022/07/19 05:42:43;;;;;;;18.00;10.00;;;25.00;53.60;;;;;;5051895;28;20501;-79
2022/07/19 05:45:11;;;;;;;16.97;10.00;;;25.20;53.20;;;;;;5050383;28;20416;-78
2022/07/19 05:47:39;;;;;;;19.23;9.90;;;25.30;53.10;;;;;;5050558;28;20420;-79
2022/07/19 05:50:07;;;;;;;18.70;9.43;;;25.00;53.00;;;;;;5051517;28;20484;-79
2022/07/19 05:52:35;;;;;;;15.30;8.70;;;24.80;53.00;;;;;;5050657;28;20944;-78
2022/07/19 05:55:06;;;;;;;20.00;9.90;;;25.00;53.60;;;;;;5050243;28;20413;-79
2022/07/19 05:57:35;;;;;;;19.30;10.43;;;25.40;53.00;;;;;;5050544;28;20480;-79
2022/07/19 06:00:03;;;;;;;48.83;12.53;;;25.60;52.10;;;;;;5036212;28;20495;-78
2022/07/19 06:02:30;;;;;;;63.17;34.87;;;25.70;51.80;;;;;;5051666;28;20409;-78
2022/07/19 06:04:58;;;;;;;49.67;31.57;;;25.80;51.90;;;;;;5051545;28;20500;-79
2022/07/19 06:07:26;;;;;;;24.23;12.50;;;25.80;51.40;;;;;;5050606;28;20455;-79
2022/07/19 06:09:54;;;;;;;15.63;9.07;;;25.70;51.50;;;;;;5050187;28;20478;-79
2022/07/19 06:12:21;;;;;;;19.00;10.00;;;25.70;51.00;;;;;;5050799;28;20533;-78
2022/07/19 06:14:50;;;;;;;15.03;8.17;;;25.80;51.00;;;;;;5050668;28;20455;-79
2022/07/19 06:17:18;;;;;;;12.20;7.90;;;25.80;49.80;;;;;;5050202;28;20521;-78
2022/07/19 06:19:46;;;;;;;15.43;8.60;;;25.80;49.60;;;;;;5051284;28;20473;-78
2022/07/19 06:22:14;;;;;;;15.10;8.27;;;25.90;49.60;;;;;;5051119;28;20429;-78
2022/07/19 06:24:41;;;;;;;20.77;8.63;;;26.00;49.60;;;;;;5050821;28;20441;-79
2022/07/19 06:27:09;;;;;;;18.43;8.17;;;26.10;49.20;;;;;;5050058;28;20472;-79
2022/07/19 06:29:37;;;;;;;27.63;8.60;;;26.30;49.00;;;;;;5051300;28;20535;-79
2022/07/19 06:32:06;;;;;;;15.50;9.90;;;26.40;48.70;;;;;;5051020;28;20442;-79
2022/07/19 06:34:34;;;;;;;19.93;9.57;;;26.60;48.80;;;;;;5050886;28;20565;-79
2022/07/19 06:37:02;;;;;;;9.80;7.80;;;26.70;48.40;;;;;;5050355;28;20512;-79
2022/07/19 06:39:30;;;;;;;15.00;7.97;;;26.90;48.40;;;;;;5050639;28;20445;-79
2022/07/19 06:41:58;;;;;;;26.73;7.87;;;27.00;48.40;;;;;;5049749;28;20866;-78
2022/07/19 06:44:26;;;;;;;20.07;7.00;;;26.90;48.30;;;;;;5050733;28;20466;-78
2022/07/19 06:46:54;;;;;;;26.40;7.53;;;26.50;48.90;;;;;;5043011;28;20470;-79
2022/07/19 06:49:24;;;;;;;25.53;7.80;;;26.00;49.40;;;;;;5035321;28;20425;-78
2022/07/19 06:51:52;;;;;;;14.77;7.27;;;26.20;49.80;;;;;;5047143;28;20419;-79
2022/07/19 06:54:20;;;;;;;19.77;7.00;;;26.60;49.40;;;;;;5035512;28;20521;-80
2022/07/19 06:56:48;;;;;;;14.37;7.47;;;26.50;49.30;;;;;;5035935;28;20835;-79
2022/07/19 06:59:16;;;;;;;9.93;6.20;;;26.70;49.30;;;;;;5036178;28;20443;-79
2022/07/19 07:01:44;;;;;;;10.97;7.10;;;27.00;48.90;;;;;;5052266;28;20448;-79
2022/07/19 07:04:13;;;;;;;11.70;7.50;;;27.00;48.90;;;;;;5056174;28;20462;-79
2022/07/19 07:06:42;;;;;;;16.20;7.27;;;27.00;49.00;;;;;;5056049;28;20508;-79
2022/07/19 07:09:10;;;;;;;19.37;6.80;;;27.10;48.60;;;;;;5057550;28;20529;-79
2022/07/19 07:11:38;;;;;;;11.23;6.20;;;27.00;48.50;;;;;;5055441;28;20452;-79
2022/07/19 07:14:07;;;;;;;12.70;6.40;;;27.20;48.20;;;;;;5056529;28;20482;-79
2022/07/19 07:16:35;;;;;;;14.50;6.17;;;27.20;48.40;;;;;;5056074;28;20550;-77
2022/07/19 07:19:03;;;;;;;15.07;6.83;;;27.30;48.00;;;;;;5053412;28;20509;-77
2022/07/19 07:21:34;;;;;;;12.90;6.30;;;27.70;47.70;;;;;;5053394;28;20417;-79
2022/07/19 07:24:05;;;;;;;8.43;5.40;;;27.90;46.80;;;;;;5052604;28;20466;-78
2022/07/19 07:26:33;;;;;;;8.47;5.70;;;28.20;46.40;;;;;;5052413;28;20990;-78
2022/07/19 07:29:01;;;;;;;8.53;5.93;;;28.30;46.00;;;;;;5052774;28;20461;-78
2022/07/19 07:31:29;;;;;;;10.33;6.47;;;28.40;45.80;;;;;;5053039;28;20474;-77
2022/07/19 07:33:57;;;;;;;11.17;5.90;;;28.50;45.70;;;;;;5052850;28;20467;-78
2022/07/19 07:36:25;;;;;;;9.13;6.07;;;28.50;45.60;;;;;;5052437;28;20513;-78
2022/07/19 07:38:53;;;;;;;6.80;5.50;;;28.60;45.50;;;;;;5052436;28;20498;-79
2022/07/19 07:41:22;;;;;;;5.83;5.23;;;28.60;45.40;;;;;;5047698;28;20493;-78
2022/07/19 07:44:09;;;;;;;8.67;5.73;;;28.70;45.30;;;;;;5032355;28;20444;-78
2022/07/19 07:46:37;;;;;;;8.67;5.87;;;28.80;45.20;;;;;;5032085;28;20446;-78
2022/07/19 07:49:05;;;;;;;8.70;5.23;;;28.90;45.10;;;;;;5032655;28;20447;-78
2022/07/19 07:51:35;;;;;;;10.40;6.00;;;28.90;45.00;;;;;;5031950;28;20502;-78
2022/07/19 07:54:12;;;;;;;13.03;5.70;;;28.90;45.60;;;;;;5032044;28;20455;-78
2022/07/19 07:56:41;;;;;;;6.30;5.40;;;29.00;44.90;;;;;;5031252;28;20558;-79
2022/07/19 07:59:09;;;;;;;7.40;5.50;;;29.10;45.50;;;;;;5044392;28;20434;-78
2022/07/19 08:01:39;;;;;;;9.27;5.27;;;29.10;44.70;;;;;;5051750;28;21037;-78
2022/07/19 08:04:07;;;;;;;6.87;5.40;;;29.20;44.70;;;;;;5051443;28;20463;-78
2022/07/19 08:06:35;;;;;;;5.80;5.17;;;29.30;44.50;;;;;;5051528;28;20443;-78
2022/07/19 08:09:04;;;;;;;9.60;5.83;;;29.40;44.50;;;;;;5051956;28;20417;-78
2022/07/19 08:11:31;;;;;;;8.83;4.63;;;29.50;44.50;;;;;;5051204;28;20477;-78
2022/07/19 08:14:02;;;;;;;5.23;4.83;;;29.50;44.30;;;;;;5040374;28;20557;-78
2022/07/19 08:16:30;;;;;;;6.00;4.93;;;29.60;44.20;;;;;;5045649;28;20431;-78
2022/07/19 08:18:58;;;;;;;6.90;4.73;;;29.70;44.20;;;;;;5051463;28;20446;-78
2022/07/19 08:21:26;;;;;;;11.13;5.20;;;29.70;43.90;;;;;;5052140;28;20435;-78
2022/07/19 08:23:54;;;;;;;5.30;4.80;;;29.80;43.80;;;;;;5057075;28;20537;-79
2022/07/19 08:26:22;;;;;;;5.93;5.00;;;29.90;43.80;;;;;;5053578;28;20537;-79
2022/07/19 08:28:50;;;;;;;9.33;4.87;;;29.90;43.70;;;;;;5040829;28;20444;-79
2022/07/19 08:31:19;;;;;;;5.90;5.30;;;30.00;43.70;;;;;;5044042;28;20463;-78
2022/07/19 08:33:47;;;;;;;13.23;5.60;;;30.10;43.40;;;;;;5045550;28;20547;-79
2022/07/19 08:36:15;;;;;;;6.73;5.10;;;30.20;43.60;;;;;;5044310;28;20443;-79
2022/07/19 08:38:43;;;;;;;5.47;4.77;;;30.30;43.40;;;;;;5048163;28;20428;-79
2022/07/19 08:41:11;;;;;;;5.00;4.60;;;30.30;43.20;;;;;;5055620;28;20513;-79
2022/07/19 08:43:39;;;;;;;5.80;4.80;;;30.50;43.30;;;;;;5042538;28;20488;-79
2022/07/19 08:46:07;;;;;;;4.97;4.47;;;30.60;43.20;;;;;;5054413;28;20526;-79
2022/07/19 08:48:39;;;;;;;5.53;4.57;;;30.60;43.00;;;;;;5046666;28;20471;-79
2022/07/19 08:51:14;;;;;;;6.77;4.60;;;30.70;42.90;;;;;;5034440;28;20446;-78
2022/07/19 08:53:43;;;;;;;5.83;4.40;;;30.80;42.60;;;;;;5033124;28;20531;-79
2022/07/19 08:58:57;;;;;;;5.17;4.20;;;30.90;42.50;;;;;;5032757;28;20530;-78
2022/07/19 09:01:25;;;;;;;5.03;4.63;;;31.00;42.40;;;;;;5046109;28;20449;-79
2022/07/19 09:04:08;;;;;;;5.70;4.07;;;31.10;42.20;;;;;;5051952;28;20489;-78
2022/07/19 09:06:39;;;;;;;3.97;3.67;;;31.20;42.40;;;;;;5051372;28;20521;-78
2022/07/19 09:09:07;;;;;;;4.63;4.30;;;31.30;42.10;;;;;;5051622;28;20537;-78
2022/07/19 09:11:35;;;;;;;4.53;3.90;;;31.40;42.00;;;;;;5051392;28;20477;-78
2022/07/19 09:14:07;;;;;;;3.87;3.50;;;31.50;41.90;;;;;;5051043;28;20945;-78
2022/07/19 09:16:53;;;;;;;5.70;4.60;;;31.60;41.70;;;;;;5050771;28;20439;-77
2022/07/19 09:19:22;;;;;;;4.07;3.77;;;31.70;41.80;;;;;;5053019;28;20439;-78
2022/07/19 09:21:54;;;;;;;4.33;3.93;;;31.80;41.30;;;;;;5049222;28;21028;-79
2022/07/19 09:24:23;;;;;;;5.23;3.80;;;31.90;41.20;;;;;;5051571;28;20538;-79
2022/07/19 09:27:04;;;;;;;4.97;3.80;;;32.00;41.10;;;;;;5053952;28;20437;-78
2022/07/19 09:29:32;;;;;;;4.20;3.90;;;32.10;41.10;;;;;;5054177;28;20434;-77
2022/07/19 09:32:05;;;;;;;4.50;3.67;;;32.20;40.80;;;;;;5053407;28;20517;-78
2022/07/19 09:34:35;;;;;;;4.10;3.80;;;32.30;40.50;;;;;;5049760;28;20479;-79
2022/07/19 09:37:20;;;;;;;3.70;3.50;;;32.40;40.50;;;;;;5054155;28;20517;-79
2022/07/19 09:39:49;;;;;;;5.03;3.70;;;32.50;40.60;;;;;;5057051;28;20678;-79
2022/07/19 09:42:20;;;;;;;3.80;3.50;;;32.60;40.20;;;;;;5041626;28;20461;-79
2022/07/19 09:44:50;;;;;;;4.47;3.50;;;32.70;40.10;;;;;;5047341;28;20469;-78
2022/07/19 09:47:18;;;;;;;5.37;3.60;;;32.80;40.00;;;;;;5035456;28;20467;-79
2022/07/19 09:49:47;;;;;;;3.57;3.10;;;32.90;39.70;;;;;;5049450;28;20457;-78
2022/07/19 09:52:15;;;;;;;3.97;3.60;;;32.90;39.90;;;;;;5052135;28;20470;-78
2022/07/19 09:54:43;;;;;;;5.33;3.50;;;33.10;39.80;;;;;;5047760;28;20551;-78
2022/07/19 09:57:11;;;;;;;3.90;3.47;;;33.20;39.50;;;;;;5032118;28;20478;-78
2022/07/19 09:59:44;;;;;;;3.70;3.30;;;33.20;39.20;;;;;;5052567;28;20453;-78
2022/07/19 10:02:12;;;;;;;6.03;3.23;;;33.30;39.30;;;;;;5053261;28;20467;-78
2022/07/19 10:04:40;;;;;;;4.70;3.40;;;33.50;39.10;;;;;;5037779;28;21004;-78
2022/07/19 10:07:09;;;;;;;3.60;3.37;;;33.50;39.00;;;;;;5041657;28;20514;-78
2022/07/19 10:09:37;;;;;;;2.87;2.67;;;33.60;38.90;;;;;;5055067;28;20447;-78
2022/07/19 10:12:06;;;;;;;3.67;3.30;;;33.70;38.80;;;;;;5054367;28;20481;-79
2022/07/19 10:14:34;;;;;;;2.90;2.80;;;33.80;38.80;;;;;;5053603;28;20481;-79
2022/07/19 10:17:08;;;;;;;4.23;3.00;;;33.90;38.60;;;;;;5053148;28;20481;-79
2022/07/19 10:19:38;;;;;;;3.00;2.80;;;34.00;38.40;;;;;;5039636;28;20474;-79
2022/07/19 10:22:09;;;;;;;3.40;3.10;;;34.00;38.30;;;;;;5032328;28;20551;-79
2022/07/19 10:24:51;;;;;;;3.50;3.20;;;34.20;38.20;;;;;;5030814;28;20460;-78
2022/07/19 10:27:36;;;;;;;3.63;3.17;;;34.20;38.10;;;;;;5031254;28;20451;-78
2022/07/19 10:30:24;;;;;;;3.40;2.87;;;34.30;37.80;;;;;;5030865;28;20447;-78
2022/07/19 10:32:53;;;;;;;3.93;2.73;;;34.50;38.00;;;;;;5038286;28;20854;-77
2022/07/19 10:35:22;;;;;;;2.57;2.37;;;34.60;37.70;;;;;;5043251;28;20442;-78
2022/07/19 10:37:52;;;;;;;3.67;3.07;;;34.70;37.60;;;;;;5048236;28;20442;-78
2022/07/19 10:40:40;;;;;;;2.97;2.77;;;34.70;37.40;;;;;;5043939;28;20450;-77
2022/07/19 10:43:09;;;;;;;3.23;3.03;;;34.90;37.60;;;;;;5039719;28;21023;-78
2022/07/19 10:45:38;;;;;;;2.93;2.83;;;34.90;37.20;;;;;;5047618;28;20453;-77
2022/07/19 10:48:11;;;;;;;2.50;2.40;;;35.00;37.20;;;;;;5030178;28;20467;-78
2022/07/19 10:51:01;;;;;;;3.13;2.67;;;35.10;37.10;;;;;;5030044;28;20483;-78
2022/07/19 10:54:05;;;;;;;2.83;2.60;;;35.20;37.00;;;;;;5028652;28;20506;-77
2022/07/19 10:56:56;;;;;;;2.40;2.27;;;35.30;37.10;;;;;;5029287;28;20439;-78
2022/07/19 10:59:35;;;;;;;2.70;2.53;;;35.40;36.80;;;;;;5042131;28;20510;-78
2022/07/19 11:02:04;;;;;;;2.90;2.70;;;35.50;36.80;;;;;;5049915;28;20999;-78
2022/07/19 11:04:52;;;;;;;2.73;2.60;;;35.60;36.60;;;;;;5049135;28;20997;-77
2022/07/19 11:07:21;;;;;;;2.10;2.00;;;35.70;36.50;;;;;;5049383;28;20941;-78
2022/07/19 11:09:53;;;;;;;2.40;2.20;;;35.70;36.30;;;;;;5049735;28;20442;-77
2022/07/19 11:12:26;;;;;;;2.40;2.20;;;35.80;36.40;;;;;;5049379;28;20482;-78
2022/07/19 11:14:54;;;;;;;3.00;2.80;;;35.90;36.20;;;;;;5048952;28;20450;-77
2022/07/19 11:17:40;;;;;;;2.83;2.57;;;36.00;36.10;;;;;;5049714;28;20484;-79
2022/07/19 11:20:10;;;;;;;2.67;2.47;;;36.10;36.00;;;;;;5051001;28;20438;-78
2022/07/19 11:22:40;;;;;;;4.40;2.40;;;36.20;35.90;;;;;;5051745;28;20477;-78
2022/07/19 11:25:10;;;;;;;2.30;2.20;;;36.20;35.70;;;;;;5050540;28;20517;-78
2022/07/19 11:27:40;;;;;;;2.27;2.17;;;36.30;35.60;;;;;;5051329;28;20446;-78
2022/07/19 11:30:09;;;;;;;2.30;2.20;;;36.40;35.60;;;;;;5051718;28;20811;-79
2022/07/19 11:32:37;;;;;;;2.47;2.37;;;36.50;35.40;;;;;;5050043;28;20470;-78
2022/07/19 11:35:06;;;;;;;2.33;2.23;;;36.50;35.30;;;;;;5048313;28;20517;-78
2022/07/19 11:37:35;;;;;;;2.10;2.00;;;36.60;35.20;;;;;;5049918;28;20527;-78
2022/07/19 11:40:04;;;;;;;2.40;2.30;;;36.70;35.10;;;;;;5046589;28;20589;-78
2022/07/19 11:42:35;;;;;;;2.60;2.40;;;36.80;35.10;;;;;;5042897;28;20427;-78
2022/07/19 11:45:24;;;;;;;2.10;2.00;;;36.80;35.00;;;;;;5033672;28;20435;-78
2022/07/19 11:47:53;;;;;;;1.97;1.97;;;36.90;34.90;;;;;;5053245;28;20953;-78
2022/07/19 11:50:22;;;;;;;2.40;2.17;;;37.00;34.80;;;;;;5053111;28;20476;-78
2022/07/19 11:52:51;;;;;;;2.10;2.00;;;37.00;34.70;;;;;;5052745;28;20474;-78
2022/07/19 11:55:20;;;;;;;2.53;2.33;;;37.10;34.60;;;;;;5052271;28;20938;-78
2022/07/19 11:57:49;;;;;;;1.50;1.50;;;37.10;34.50;;;;;;5050057;28;20451;-78
2022/07/19 12:00:18;;;;;;;2.37;2.27;;;37.20;34.40;;;;;;5036805;28;20937;-78
2022/07/19 12:02:57;;;;;;;5.80;2.30;;;37.30;34.40;;;;;;5052649;28;20438;-78
2022/07/19 12:05:26;;;;;;;2.10;2.00;;;37.30;34.40;;;;;;5052087;28;20474;-78
2022/07/19 12:07:56;;;;;;;2.13;2.03;;;37.40;34.30;;;;;;5052958;28;20518;-78
2022/07/19 12:10:37;;;;;;;2.57;2.10;;;37.50;34.20;;;;;;5052509;28;20554;-78
2022/07/19 12:13:08;;;;;;;3.23;2.00;;;37.50;34.20;;;;;;5052805;28;20486;-78
2022/07/19 12:15:45;;;;;;;2.20;2.10;;;37.60;34.00;;;;;;5052330;28;20435;-78
2022/07/19 12:18:14;;;;;;;1.60;1.60;;;37.60;34.00;;;;;;5052848;28;20484;-78
2022/07/19 12:20:42;;;;;;;2.10;2.00;;;37.70;33.90;;;;;;5052358;28;20438;-78
2022/07/19 12:23:18;;;;;;;2.10;2.00;;;37.80;33.80;;;;;;5052246;28;20462;-78
2022/07/19 12:25:46;;;;;;;1.90;1.80;;;37.80;33.70;;;;;;5051700;28;20964;-78
2022/07/19 12:28:15;;;;;;;2.10;1.80;;;37.80;33.60;;;;;;5052105;28;20489;-78
2022/07/19 12:30:43;;;;;;;2.10;1.83;;;37.90;33.50;;;;;;5051791;28;20525;-78
2022/07/19 12:33:11;;;;;;;1.90;1.90;;;37.90;33.30;;;;;;5052331;28;20475;-78
2022/07/19 12:35:43;;;;;;;2.10;2.00;;;38.00;33.30;;;;;;5052317;28;20443;-78
2022/07/19 12:38:12;;;;;;;1.90;1.70;;;38.00;33.20;;;;;;5053512;28;20445;-79
2022/07/19 12:40:41;;;;;;;2.00;1.80;;;38.10;33.20;;;;;;5050025;28;20525;-78
2022/07/19 12:43:12;;;;;;;3.00;1.70;;;38.10;33.10;;;;;;5032628;28;20551;-78
2022/07/19 12:45:43;;;;;;;2.20;1.83;;;38.20;33.10;;;;;;5041383;28;20458;-79
2022/07/19 12:48:12;;;;;;;2.03;1.93;;;38.20;33.00;;;;;;5053594;28;20435;-78
2022/07/19 12:50:40;;;;;;;2.03;1.80;;;38.30;32.90;;;;;;5051534;28;20442;-78
2022/07/19 12:53:09;;;;;;;1.60;1.60;;;38.30;32.90;;;;;;5052452;28;20506;-78